Weather at Steinbach Airport

Public forecast

Using degrees Celsius for public forecast. Weather courtesy of forecast.io.

Closest aviation weather report (METAR) to Steinbach Airport

Closest report is Winnipeg / James Armstrong Richardson International Airport, 30.7 nm (56.8 km) NW. Retrieved 2020/11/23 15:00 UTC (28 minutes ago):

CYWG 231500Z 14010KT 15SM FEW250 M13/M16 A3025 RMK CI2 SLP268

Closest aviation forecast (TAF) to Steinbach Airport

Closest forecast is Winnipeg / James Armstrong Richardson International Airport, 30.7 nm (56.8 km) NW. Retrieved 2020/11/23 12:39 UTC (3 hours ago):

TAF CYWG 231138Z 2312/2412 12008KT P6SM FEW150 TEMPO 2312/2316 BKN020 FM231600 14015KT P6SM BKN160 FM240500 16015KT P6SM BKN020 FM240900 16012G22KT 3SM -SN BR BKN008 OVC015 RMK NXT FCST BY 231800Z